sensor_id;sensor_type;location;lat;lon;timestamp;P1;durP1;ratioP1;P2;durP2;ratioP2
74170;SDS011;62526;50.948;6.590;2023-04-01T00:01:51;5.07;;;1.23;;
74170;SDS011;62526;50.948;6.590;2023-04-01T00:04:18;1.60;;;1.43;;
74170;SDS011;62526;50.948;6.590;2023-04-01T00:06:45;6.90;;;1.00;;
74170;SDS011;62526;50.948;6.590;2023-04-01T00:09:12;0.80;;;0.80;;
74170;SDS011;62526;50.948;6.590;2023-04-01T00:11:39;1.37;;;0.90;;
74170;SDS011;62526;50.948;6.590;2023-04-01T00:14:06;3.90;;;1.07;;
74170;SDS011;62526;50.948;6.590;2023-04-01T00:16:33;1.20;;;0.93;;
74170;SDS011;62526;50.948;6.590;2023-04-01T00:19:00;1.20;;;1.10;;
74170;SDS011;62526;50.948;6.590;2023-04-01T00:21:27;1.13;;;1.00;;
74170;SDS011;62526;50.948;6.590;2023-04-01T00:23:53;6.10;;;1.47;;
74170;SDS011;62526;50.948;6.590;2023-04-01T00:26:20;6.53;;;1.00;;
74170;SDS011;62526;50.948;6.590;2023-04-01T00:28:48;4.47;;;1.03;;
74170;SDS011;62526;50.948;6.590;2023-04-01T00:31:15;1.30;;;0.93;;
74170;SDS011;62526;50.948;6.590;2023-04-01T00:33:42;2.17;;;1.20;;
74170;SDS011;62526;50.948;6.590;2023-04-01T00:36:11;2.17;;;1.27;;
74170;SDS011;62526;50.948;6.590;2023-04-01T00:38:38;0.97;;;0.90;;
74170;SDS011;62526;50.948;6.590;2023-04-01T00:41:05;1.63;;;1.30;;
74170;SDS011;62526;50.948;6.590;2023-04-01T00:43:32;2.90;;;0.93;;
74170;SDS011;62526;50.948;6.590;2023-04-01T00:46:00;1.10;;;1.00;;
74170;SDS011;62526;50.948;6.590;2023-04-01T00:48:28;2.43;;;1.20;;
74170;SDS011;62526;50.948;6.590;2023-04-01T00:50:56;5.03;;;0.93;;
74170;SDS011;62526;50.948;6.590;2023-04-01T00:53:22;2.20;;;1.00;;
74170;SDS011;62526;50.948;6.590;2023-04-01T00:55:50;3.77;;;0.83;;
74170;SDS011;62526;50.948;6.590;2023-04-01T00:58:17;1.53;;;0.97;;
74170;SDS011;62526;50.948;6.590;2023-04-01T01:00:43;2.27;;;1.10;;
74170;SDS011;62526;50.948;6.590;2023-04-01T01:03:11;1.00;;;0.93;;
74170;SDS011;62526;50.948;6.590;2023-04-01T01:05:58;2.00;;;1.00;;
74170;SDS011;62526;50.948;6.590;2023-04-01T01:08:30;2.37;;;1.00;;
74170;SDS011;62526;50.948;6.590;2023-04-01T01:11:05;0.87;;;0.87;;
74170;SDS011;62526;50.948;6.590;2023-04-01T01:16:27;1.13;;;1.03;;
74170;SDS011;62526;50.948;6.590;2023-04-01T01:18:58;1.70;;;0.90;;
74170;SDS011;62526;50.948;6.590;2023-04-01T01:21:33;1.60;;;0.90;;
74170;SDS011;62526;50.948;6.590;2023-04-01T01:24:07;1.40;;;0.90;;
74170;SDS011;62526;50.948;6.590;2023-04-01T01:29:16;0.80;;;0.80;;
74170;SDS011;62526;50.948;6.590;2023-04-01T01:32:04;2.40;;;0.90;;
74170;SDS011;62526;50.948;6.590;2023-04-01T01:37:35;1.27;;;0.93;;
74170;SDS011;62526;50.948;6.590;2023-04-01T01:40:04;5.60;;;0.90;;
74170;SDS011;62526;50.948;6.590;2023-04-01T01:42:31;1.00;;;0.90;;
74170;SDS011;62526;50.948;6.590;2023-04-01T01:44:57;3.17;;;1.30;;
74170;SDS011;62526;50.948;6.590;2023-04-01T01:47:25;0.87;;;0.87;;
74170;SDS011;62526;50.948;6.590;2023-04-01T01:49:52;1.07;;;1.07;;
74170;SDS011;62526;50.948;6.590;2023-04-01T01:52:19;1.80;;;1.13;;
74170;SDS011;62526;50.948;6.590;2023-04-01T01:54:47;2.27;;;0.83;;
74170;SDS011;62526;50.948;6.590;2023-04-01T01:57:15;0.90;;;0.90;;
74170;SDS011;62526;50.948;6.590;2023-04-01T01:59:43;1.43;;;1.00;;
74170;SDS011;62526;50.948;6.590;2023-04-01T02:02:10;2.63;;;0.90;;
74170;SDS011;62526;50.948;6.590;2023-04-01T02:04:37;0.90;;;0.90;;
74170;SDS011;62526;50.948;6.590;2023-04-01T02:07:05;1.70;;;1.13;;
74170;SDS011;62526;50.948;6.590;2023-04-01T02:09:31;0.80;;;0.80;;
74170;SDS011;62526;50.948;6.590;2023-04-01T02:12:00;1.43;;;1.10;;
74170;SDS011;62526;50.948;6.590;2023-04-01T02:14:30;0.70;;;0.70;;
74170;SDS011;62526;50.948;6.590;2023-04-01T02:16:58;1.00;;;0.80;;
74170;SDS011;62526;50.948;6.590;2023-04-01T02:19:26;0.60;;;0.60;;
74170;SDS011;62526;50.948;6.590;2023-04-01T02:21:53;0.80;;;0.80;;
74170;SDS011;62526;50.948;6.590;2023-04-01T02:24:20;0.80;;;0.80;;
74170;SDS011;62526;50.948;6.590;2023-04-01T02:26:47;0.77;;;0.77;;
74170;SDS011;62526;50.948;6.590;2023-04-01T02:29:14;0.80;;;0.80;;
74170;SDS011;62526;50.948;6.590;2023-04-01T02:31:41;0.87;;;0.80;;
74170;SDS011;62526;50.948;6.590;2023-04-01T02:34:08;1.60;;;1.00;;
74170;SDS011;62526;50.948;6.590;2023-04-01T02:36:35;0.80;;;0.80;;
74170;SDS011;62526;50.948;6.590;2023-04-01T02:39:03;1.03;;;0.97;;
74170;SDS011;62526;50.948;6.590;2023-04-01T02:41:30;0.73;;;0.70;;
74170;SDS011;62526;50.948;6.590;2023-04-01T02:43:57;1.93;;;0.97;;
74170;SDS011;62526;50.948;6.590;2023-04-01T02:46:25;0.70;;;0.70;;
74170;SDS011;62526;50.948;6.590;2023-04-01T02:48:53;0.97;;;0.80;;
74170;SDS011;62526;50.948;6.590;2023-04-01T02:51:20;0.60;;;0.60;;
74170;SDS011;62526;50.948;6.590;2023-04-01T02:53:47;0.53;;;0.53;;
74170;SDS011;62526;50.948;6.590;2023-04-01T02:56:14;1.17;;;1.03;;
74170;SDS011;62526;50.948;6.590;2023-04-01T02:58:41;1.43;;;1.03;;
74170;SDS011;62526;50.948;6.590;2023-04-01T03:01:08;1.37;;;0.87;;
74170;SDS011;62526;50.948;6.590;2023-04-01T03:03:36;1.70;;;0.90;;
74170;SDS011;62526;50.948;6.590;2023-04-01T03:06:04;2.70;;;0.90;;
74170;SDS011;62526;50.948;6.590;2023-04-01T03:08:32;1.13;;;0.80;;
74170;SDS011;62526;50.948;6.590;2023-04-01T03:10:58;1.00;;;0.90;;
74170;SDS011;62526;50.948;6.590;2023-04-01T03:13:25;0.77;;;0.77;;
74170;SDS011;62526;50.948;6.590;2023-04-01T03:15:52;2.27;;;1.10;;
74170;SDS011;62526;50.948;6.590;2023-04-01T03:18:19;0.70;;;0.70;;
74170;SDS011;62526;50.948;6.590;2023-04-01T03:20:46;2.20;;;0.80;;
74170;SDS011;62526;50.948;6.590;2023-04-01T03:23:13;0.90;;;0.90;;
74170;SDS011;62526;50.948;6.590;2023-04-01T03:25:40;0.87;;;0.87;;
74170;SDS011;62526;50.948;6.590;2023-04-01T03:28:07;0.80;;;0.80;;
74170;SDS011;62526;50.948;6.590;2023-04-01T03:30:34;0.60;;;0.60;;
74170;SDS011;62526;50.948;6.590;2023-04-01T03:35:47;1.67;;;0.77;;
74170;SDS011;62526;50.948;6.590;2023-04-01T03:38:14;0.93;;;0.87;;
74170;SDS011;62526;50.948;6.590;2023-04-01T03:40:42;1.03;;;0.93;;
74170;SDS011;62526;50.948;6.590;2023-04-01T03:43:09;1.43;;;0.90;;
74170;SDS011;62526;50.948;6.590;2023-04-01T03:45:42;0.70;;;0.70;;
74170;SDS011;62526;50.948;6.590;2023-04-01T03:48:11;1.20;;;1.10;;
74170;SDS011;62526;50.948;6.590;2023-04-01T03:50:39;4.10;;;1.17;;
74170;SDS011;62526;50.948;6.590;2023-04-01T03:53:06;2.53;;;1.10;;
74170;SDS011;62526;50.948;6.590;2023-04-01T03:55:33;0.87;;;0.87;;
74170;SDS011;62526;50.948;6.590;2023-04-01T03:58:00;0.97;;;0.97;;
74170;SDS011;62526;50.948;6.590;2023-04-01T04:00:26;1.20;;;1.00;;
74170;SDS011;62526;50.948;6.590;2023-04-01T04:02:53;2.23;;;1.00;;
74170;SDS011;62526;50.948;6.590;2023-04-01T04:05:20;0.70;;;0.70;;
74170;SDS011;62526;50.948;6.590;2023-04-01T04:07:47;1.50;;;0.87;;
74170;SDS011;62526;50.948;6.590;2023-04-01T04:10:14;1.70;;;1.10;;
74170;SDS011;62526;50.948;6.590;2023-04-01T04:12:41;0.90;;;0.70;;
74170;SDS011;62526;50.948;6.590;2023-04-01T04:15:08;1.13;;;1.03;;
74170;SDS011;62526;50.948;6.590;2023-04-01T04:17:35;1.50;;;1.13;;
74170;SDS011;62526;50.948;6.590;2023-04-01T04:20:04;1.03;;;0.90;;
74170;SDS011;62526;50.948;6.590;2023-04-01T04:22:31;0.80;;;0.80;;
74170;SDS011;62526;50.948;6.590;2023-04-01T04:24:59;1.13;;;1.03;;
74170;SDS011;62526;50.948;6.590;2023-04-01T04:27:27;0.77;;;0.77;;
74170;SDS011;62526;50.948;6.590;2023-04-01T04:29:54;1.63;;;1.10;;
74170;SDS011;62526;50.948;6.590;2023-04-01T04:32:22;0.80;;;0.80;;
74170;SDS011;62526;50.948;6.590;2023-04-01T04:34:48;0.90;;;0.90;;
74170;SDS011;62526;50.948;6.590;2023-04-01T04:37:15;1.17;;;0.97;;
74170;SDS011;62526;50.948;6.590;2023-04-01T04:39:43;1.10;;;0.90;;
74170;SDS011;62526;50.948;6.590;2023-04-01T04:42:10;0.87;;;0.87;;
74170;SDS011;62526;50.948;6.590;2023-04-01T04:44:37;0.90;;;0.90;;
74170;SDS011;62526;50.948;6.590;2023-04-01T04:47:05;0.90;;;0.90;;
74170;SDS011;62526;50.948;6.590;2023-04-01T04:49:31;3.97;;;1.40;;
74170;SDS011;62526;50.948;6.590;2023-04-01T04:51:59;3.53;;;0.83;;
74170;SDS011;62526;50.948;6.590;2023-04-01T04:54:26;2.13;;;0.83;;
74170;SDS011;62526;50.948;6.590;2023-04-01T04:56:53;2.67;;;0.83;;
74170;SDS011;62526;50.948;6.590;2023-04-01T04:59:21;0.90;;;0.90;;
74170;SDS011;62526;50.948;6.590;2023-04-01T05:01:48;1.13;;;0.90;;
74170;SDS011;62526;50.948;6.590;2023-04-01T05:04:15;2.50;;;0.93;;
74170;SDS011;62526;50.948;6.590;2023-04-01T05:06:42;1.00;;;1.00;;
74170;SDS011;62526;50.948;6.590;2023-04-01T05:09:10;1.63;;;1.10;;
74170;SDS011;62526;50.948;6.590;2023-04-01T05:11:37;1.73;;;1.07;;
74170;SDS011;62526;50.948;6.590;2023-04-01T05:14:03;1.00;;;1.00;;
74170;SDS011;62526;50.948;6.590;2023-04-01T05:16:30;1.00;;;1.00;;
74170;SDS011;62526;50.948;6.590;2023-04-01T05:18:57;1.13;;;1.07;;
74170;SDS011;62526;50.948;6.590;2023-04-01T05:21:24;1.93;;;1.10;;
74170;SDS011;62526;50.948;6.590;2023-04-01T05:23:51;1.03;;;1.03;;
74170;SDS011;62526;50.948;6.590;2023-04-01T05:26:18;1.30;;;1.20;;
74170;SDS011;62526;50.948;6.590;2023-04-01T05:28:45;3.70;;;1.10;;
74170;SDS011;62526;50.948;6.590;2023-04-01T05:31:12;0.90;;;0.90;;
74170;SDS011;62526;50.948;6.590;2023-04-01T05:33:46;2.57;;;1.40;;
74170;SDS011;62526;50.948;6.590;2023-04-01T05:36:13;1.13;;;1.13;;
74170;SDS011;62526;50.948;6.590;2023-04-01T05:38:40;3.00;;;1.10;;
74170;SDS011;62526;50.948;6.590;2023-04-01T05:41:07;1.00;;;1.00;;
74170;SDS011;62526;50.948;6.590;2023-04-01T05:43:36;0.90;;;0.90;;
74170;SDS011;62526;50.948;6.590;2023-04-01T05:46:03;1.00;;;1.00;;
74170;SDS011;62526;50.948;6.590;2023-04-01T05:48:30;0.97;;;0.97;;
74170;SDS011;62526;50.948;6.590;2023-04-01T05:50:58;2.20;;;1.30;;
74170;SDS011;62526;50.948;6.590;2023-04-01T05:53:24;2.10;;;1.00;;
74170;SDS011;62526;50.948;6.590;2023-04-01T05:55:51;1.20;;;0.73;;
74170;SDS011;62526;50.948;6.590;2023-04-01T05:58:18;0.90;;;0.90;;
74170;SDS011;62526;50.948;6.590;2023-04-01T06:00:45;0.90;;;0.90;;
74170;SDS011;62526;50.948;6.590;2023-04-01T06:03:13;1.83;;;1.10;;
74170;SDS011;62526;50.948;6.590;2023-04-01T06:05:41;0.70;;;0.70;;
74170;SDS011;62526;50.948;6.590;2023-04-01T06:08:13;1.20;;;1.10;;
74170;SDS011;62526;50.948;6.590;2023-04-01T06:13:43;1.00;;;1.00;;
74170;SDS011;62526;50.948;6.590;2023-04-01T06:16:21;1.10;;;1.10;;
74170;SDS011;62526;50.948;6.590;2023-04-01T06:19:05;1.70;;;1.20;;
74170;SDS011;62526;50.948;6.590;2023-04-01T06:21:50;1.00;;;1.00;;
74170;SDS011;62526;50.948;6.590;2023-04-01T06:24:21;3.67;;;1.30;;
74170;SDS011;62526;50.948;6.590;2023-04-01T06:29:48;1.50;;;1.30;;
74170;SDS011;62526;50.948;6.590;2023-04-01T06:35:02;2.83;;;1.67;;
74170;SDS011;62526;50.948;6.590;2023-04-01T06:40:28;2.47;;;1.50;;
74170;SDS011;62526;50.948;6.590;2023-04-01T06:42:53;1.10;;;1.10;;
74170;SDS011;62526;50.948;6.590;2023-04-01T06:45:28;2.27;;;1.47;;
74170;SDS011;62526;50.948;6.590;2023-04-01T06:49:12;3.63;;;1.80;;
74170;SDS011;62526;50.948;6.590;2023-04-01T06:50:54;3.47;;;1.57;;
74170;SDS011;62526;50.948;6.590;2023-04-01T06:53:33;2.00;;;1.30;;
74170;SDS011;62526;50.948;6.590;2023-04-01T06:56:10;1.67;;;1.57;;
74170;SDS011;62526;50.948;6.590;2023-04-01T06:58:37;1.40;;;1.30;;
74170;SDS011;62526;50.948;6.590;2023-04-01T07:01:06;1.53;;;1.43;;
74170;SDS011;62526;50.948;6.590;2023-04-01T07:03:35;1.50;;;1.40;;
74170;SDS011;62526;50.948;6.590;2023-04-01T07:06:20;1.70;;;1.53;;
74170;SDS011;62526;50.948;6.590;2023-04-01T07:08:43;2.13;;;1.47;;
74170;SDS011;62526;50.948;6.590;2023-04-01T07:11:11;2.03;;;1.33;;
74170;SDS011;62526;50.948;6.590;2023-04-01T07:13:41;1.90;;;1.70;;
74170;SDS011;62526;50.948;6.590;2023-04-01T07:19:03;2.37;;;1.83;;
74170;SDS011;62526;50.948;6.590;2023-04-01T07:21:51;4.10;;;1.50;;
74170;SDS011;62526;50.948;6.590;2023-04-01T07:24:24;2.00;;;1.67;;
74170;SDS011;62526;50.948;6.590;2023-04-01T07:26:52;2.30;;;1.33;;
74170;SDS011;62526;50.948;6.590;2023-04-01T07:29:17;2.73;;;1.60;;
74170;SDS011;62526;50.948;6.590;2023-04-01T07:31:55;1.20;;;1.10;;
74170;SDS011;62526;50.948;6.590;2023-04-01T07:34:24;3.27;;;1.47;;
74170;SDS011;62526;50.948;6.590;2023-04-01T07:37:28;1.27;;;1.17;;
74170;SDS011;62526;50.948;6.590;2023-04-01T07:39:40;1.47;;;1.20;;
74170;SDS011;62526;50.948;6.590;2023-04-01T07:42:15;2.10;;;1.30;;
74170;SDS011;62526;50.948;6.590;2023-04-01T07:47:30;1.57;;;1.40;;
74170;SDS011;62526;50.948;6.590;2023-04-01T07:50:11;1.10;;;1.10;;
74170;SDS011;62526;50.948;6.590;2023-04-01T07:52:48;2.50;;;1.30;;
74170;SDS011;62526;50.948;6.590;2023-04-01T07:55:26;2.00;;;1.13;;
74170;SDS011;62526;50.948;6.590;2023-04-01T07:58:12;1.50;;;1.03;;
74170;SDS011;62526;50.948;6.590;2023-04-01T08:00:42;1.70;;;1.20;;
74170;SDS011;62526;50.948;6.590;2023-04-01T08:03:17;0.97;;;0.90;;
74170;SDS011;62526;50.948;6.590;2023-04-01T08:05:49;1.10;;;1.10;;
74170;SDS011;62526;50.948;6.590;2023-04-01T08:08:23;1.30;;;1.20;;
74170;SDS011;62526;50.948;6.590;2023-04-01T08:11:03;1.10;;;1.10;;
74170;SDS011;62526;50.948;6.590;2023-04-01T08:13:51;1.37;;;1.27;;
74170;SDS011;62526;50.948;6.590;2023-04-01T08:16:35;1.40;;;1.30;;
74170;SDS011;62526;50.948;6.590;2023-04-01T08:19:20;0.90;;;0.90;;
74170;SDS011;62526;50.948;6.590;2023-04-01T08:21:58;1.10;;;1.10;;
74170;SDS011;62526;50.948;6.590;2023-04-01T08:24:27;1.10;;;1.10;;
74170;SDS011;62526;50.948;6.590;2023-04-01T08:26:57;1.33;;;1.23;;
74170;SDS011;62526;50.948;6.590;2023-04-01T08:29:34;0.97;;;0.97;;
74170;SDS011;62526;50.948;6.590;2023-04-01T08:32:06;1.07;;;1.03;;
74170;SDS011;62526;50.948;6.590;2023-04-01T08:37:09;1.00;;;1.00;;
74170;SDS011;62526;50.948;6.590;2023-04-01T08:39:41;0.93;;;0.93;;
74170;SDS011;62526;50.948;6.590;2023-04-01T08:42:18;0.80;;;0.80;;
74170;SDS011;62526;50.948;6.590;2023-04-01T08:45:02;0.80;;;0.80;;
74170;SDS011;62526;50.948;6.590;2023-04-01T08:47:46;1.53;;;1.00;;
74170;SDS011;62526;50.948;6.590;2023-04-01T08:53:29;0.87;;;0.87;;
74170;SDS011;62526;50.948;6.590;2023-04-01T08:56:06;1.00;;;1.00;;
74170;SDS011;62526;50.948;6.590;2023-04-01T08:58:42;1.20;;;1.10;;
74170;SDS011;62526;50.948;6.590;2023-04-01T09:04:27;0.93;;;0.93;;
74170;SDS011;62526;50.948;6.590;2023-04-01T09:07:00;0.90;;;0.90;;
74170;SDS011;62526;50.948;6.590;2023-04-01T09:09:40;1.00;;;1.00;;
74170;SDS011;62526;50.948;6.590;2023-04-01T09:12:15;1.00;;;1.00;;
74170;SDS011;62526;50.948;6.590;2023-04-01T09:14:42;1.00;;;1.00;;
74170;SDS011;62526;50.948;6.590;2023-04-01T09:17:40;1.00;;;1.00;;
74170;SDS011;62526;50.948;6.590;2023-04-01T09:20:06;0.90;;;0.90;;
74170;SDS011;62526;50.948;6.590;2023-04-01T09:27:57;1.30;;;1.20;;
74170;SDS011;62526;50.948;6.590;2023-04-01T09:30:38;0.93;;;0.93;;
74170;SDS011;62526;50.948;6.590;2023-04-01T09:33:23;1.03;;;1.03;;
74170;SDS011;62526;50.948;6.590;2023-04-01T09:35:47;1.40;;;1.30;;
74170;SDS011;62526;50.948;6.590;2023-04-01T09:40:50;1.40;;;1.30;;
74170;SDS011;62526;50.948;6.590;2023-04-01T09:43:18;1.70;;;1.60;;
74170;SDS011;62526;50.948;6.590;2023-04-01T09:46:06;1.67;;;1.30;;
74170;SDS011;62526;50.948;6.590;2023-04-01T09:48:46;1.67;;;1.50;;
74170;SDS011;62526;50.948;6.590;2023-04-01T09:57:09;1.80;;;1.37;;
74170;SDS011;62526;50.948;6.590;2023-04-01T10:02:27;1.40;;;1.30;;
74170;SDS011;62526;50.948;6.590;2023-04-01T10:07:30;3.22;;;1.40;;
74170;SDS011;62526;50.948;6.590;2023-04-01T10:10:21;1.77;;;1.67;;
74170;SDS011;62526;50.948;6.590;2023-04-01T10:13:07;2.13;;;1.80;;
74170;SDS011;62526;50.948;6.590;2023-04-01T10:15:45;1.93;;;1.77;;
74170;SDS011;62526;50.948;6.590;2023-04-01T10:18:19;1.83;;;1.70;;
74170;SDS011;62526;50.948;6.590;2023-04-01T10:21:16;1.90;;;1.73;;
74170;SDS011;62526;50.948;6.590;2023-04-01T10:23:48;2.13;;;1.47;;
74170;SDS011;62526;50.948;6.590;2023-04-01T10:31:53;1.70;;;1.60;;
74170;SDS011;62526;50.948;6.590;2023-04-01T10:34:37;1.70;;;1.60;;
74170;SDS011;62526;50.948;6.590;2023-04-01T10:46:34;1.80;;;1.70;;
74170;SDS011;62526;50.948;6.590;2023-04-01T10:48:50;1.83;;;1.73;;
74170;SDS011;62526;50.948;6.590;2023-04-01T10:51:22;1.53;;;1.43;;
74170;SDS011;62526;50.948;6.590;2023-04-01T10:53:59;1.57;;;1.47;;
74170;SDS011;62526;50.948;6.590;2023-04-01T10:56:47;2.17;;;1.90;;
74170;SDS011;62526;50.948;6.590;2023-04-01T11:44:24;1.70;;;1.60;;
74170;SDS011;62526;50.948;6.590;2023-04-01T11:49:35;1.97;;;1.87;;
74170;SDS011;62526;50.948;6.590;2023-04-01T12:03:56;1.90;;;1.80;;
74170;SDS011;62526;50.948;6.590;2023-04-01T13:18:45;1.90;;;1.80;;
74170;SDS011;62526;50.948;6.590;2023-04-01T13:21:18;1.95;;;1.85;;
74170;SDS011;62526;50.948;6.590;2023-04-01T13:23:51;1.70;;;1.60;;
74170;SDS011;62526;50.948;6.590;2023-04-01T13:29:16;2.10;;;1.90;;
74170;SDS011;62526;50.948;6.590;2023-04-01T13:31:53;2.05;;;1.95;;
74170;SDS011;62526;50.948;6.590;2023-04-01T13:34:26;2.10;;;1.87;;
74170;SDS011;62526;50.948;6.590;2023-04-01T13:36:55;2.17;;;2.08;;
74170;SDS011;62526;50.948;6.590;2023-04-01T13:39:26;1.80;;;1.70;;
74170;SDS011;62526;50.948;6.590;2023-04-01T13:41:59;2.00;;;1.80;;
74170;SDS011;62526;50.948;6.590;2023-04-01T13:44:31;2.85;;;2.40;;
74170;SDS011;62526;50.948;6.590;2023-04-01T13:52:08;5.53;;;2.35;;
74170;SDS011;62526;50.948;6.590;2023-04-01T13:54:39;2.42;;;2.22;;
74170;SDS011;62526;50.948;6.590;2023-04-01T13:57:27;2.70;;;2.50;;
74170;SDS011;62526;50.948;6.590;2023-04-01T14:00:16;2.75;;;2.50;;
74170;SDS011;62526;50.948;6.590;2023-04-01T14:02:50;2.17;;;1.98;;
74170;SDS011;62526;50.948;6.590;2023-04-01T14:08:10;2.35;;;2.15;;
74170;SDS011;62526;50.948;6.590;2023-04-01T14:11:09;2.40;;;2.20;;
74170;SDS011;62526;50.948;6.590;2023-04-01T14:13:40;2.72;;;2.25;;
74170;SDS011;62526;50.948;6.590;2023-04-01T14:16:12;2.20;;;2.00;;
74170;SDS011;62526;50.948;6.590;2023-04-01T14:18:57;1.97;;;1.83;;
74170;SDS011;62526;50.948;6.590;2023-04-01T14:21:29;1.62;;;1.52;;
74170;SDS011;62526;50.948;6.590;2023-04-01T14:26:38;2.17;;;1.97;;
74170;SDS011;62526;50.948;6.590;2023-04-01T14:29:29;2.27;;;2.07;;
74170;SDS011;62526;50.948;6.590;2023-04-01T14:32:06;1.92;;;1.80;;
74170;SDS011;62526;50.948;6.590;2023-04-01T14:34:36;2.30;;;2.10;;
74170;SDS011;62526;50.948;6.590;2023-04-01T14:37:14;3.87;;;2.33;;
74170;SDS011;62526;50.948;6.590;2023-04-01T14:39:46;2.97;;;2.50;;
74170;SDS011;62526;50.948;6.590;2023-04-01T14:42:23;2.17;;;2.00;;
74170;SDS011;62526;50.948;6.590;2023-04-01T14:44:54;2.53;;;2.27;;
74170;SDS011;62526;50.948;6.590;2023-04-01T14:47:23;3.83;;;2.20;;
74170;SDS011;62526;50.948;6.590;2023-04-01T14:49:49;3.33;;;2.63;;
74170;SDS011;62526;50.948;6.590;2023-04-01T14:52:22;3.43;;;2.23;;
74170;SDS011;62526;50.948;6.590;2023-04-01T14:54:48;3.00;;;2.72;;
74170;SDS011;62526;50.948;6.590;2023-04-01T14:57:16;4.67;;;3.43;;
74170;SDS011;62526;50.948;6.590;2023-04-01T14:59:51;2.97;;;2.60;;
74170;SDS011;62526;50.948;6.590;2023-04-01T15:02:28;3.12;;;2.83;;
74170;SDS011;62526;50.948;6.590;2023-04-01T15:07:35;3.53;;;2.70;;
74170;SDS011;62526;50.948;6.590;2023-04-01T15:10:04;2.93;;;2.63;;
74170;SDS011;62526;50.948;6.590;2023-04-01T15:12:53;3.10;;;2.67;;
74170;SDS011;62526;50.948;6.590;2023-04-01T15:15:39;3.47;;;3.00;;
74170;SDS011;62526;50.948;6.590;2023-04-01T15:24:07;3.03;;;2.42;;
74170;SDS011;62526;50.948;6.590;2023-04-01T15:26:26;2.97;;;2.63;;
74170;SDS011;62526;50.948;6.590;2023-04-01T15:31:32;2.43;;;2.10;;
74170;SDS011;62526;50.948;6.590;2023-04-01T15:34:06;4.53;;;2.73;;
74170;SDS011;62526;50.948;6.590;2023-04-01T15:36:51;2.77;;;2.47;;
74170;SDS011;62526;50.948;6.590;2023-04-01T15:39:36;4.30;;;2.47;;
74170;SDS011;62526;50.948;6.590;2023-04-01T15:42:19;3.70;;;3.30;;
74170;SDS011;62526;50.948;6.590;2023-04-01T15:44:53;2.83;;;2.57;;
74170;SDS011;62526;50.948;6.590;2023-04-01T15:53:12;2.33;;;2.13;;
74170;SDS011;62526;50.948;6.590;2023-04-01T15:55:42;3.13;;;2.90;;
74170;SDS011;62526;50.948;6.590;2023-04-01T15:58:21;2.43;;;2.23;;
74170;SDS011;62526;50.948;6.590;2023-04-01T16:00:55;3.83;;;2.67;;
74170;SDS011;62526;50.948;6.590;2023-04-01T16:03:46;3.30;;;3.00;;
74170;SDS011;62526;50.948;6.590;2023-04-01T16:06:45;2.53;;;2.33;;
74170;SDS011;62526;50.948;6.590;2023-04-01T16:11:46;2.23;;;2.03;;
74170;SDS011;62526;50.948;6.590;2023-04-01T16:14:33;2.67;;;2.33;;
74170;SDS011;62526;50.948;6.590;2023-04-01T16:17:09;2.42;;;1.92;;
74170;SDS011;62526;50.948;6.590;2023-04-01T16:19:41;2.50;;;2.00;;
74170;SDS011;62526;50.948;6.590;2023-04-01T16:22:23;3.00;;;2.43;;
74170;SDS011;62526;50.948;6.590;2023-04-01T16:25:01;2.40;;;2.00;;
74170;SDS011;62526;50.948;6.590;2023-04-01T16:27:35;2.00;;;1.73;;
74170;SDS011;62526;50.948;6.590;2023-04-01T16:30:01;1.83;;;1.73;;
74170;SDS011;62526;50.948;6.590;2023-04-01T16:35:35;3.42;;;2.30;;
74170;SDS011;62526;50.948;6.590;2023-04-01T16:38:20;2.57;;;2.37;;
74170;SDS011;62526;50.948;6.590;2023-04-01T16:41:04;1.83;;;1.73;;
74170;SDS011;62526;50.948;6.590;2023-04-01T16:43:28;2.53;;;2.30;;
74170;SDS011;62526;50.948;6.590;2023-04-01T16:48:45;2.37;;;1.97;;
74170;SDS011;62526;50.948;6.590;2023-04-01T16:51:12;2.33;;;2.13;;
74170;SDS011;62526;50.948;6.590;2023-04-01T16:53:41;1.75;;;1.65;;
74170;SDS011;62526;50.948;6.590;2023-04-01T16:56:24;1.93;;;1.83;;
74170;SDS011;62526;50.948;6.590;2023-04-01T16:59:00;3.20;;;2.57;;
74170;SDS011;62526;50.948;6.590;2023-04-01T17:02:13;2.23;;;2.00;;
74170;SDS011;62526;50.948;6.590;2023-04-01T17:07:06;2.63;;;2.20;;
74170;SDS011;62526;50.948;6.590;2023-04-01T17:09:49;4.27;;;2.00;;
74170;SDS011;62526;50.948;6.590;2023-04-01T17:12:25;2.33;;;1.90;;
74170;SDS011;62526;50.948;6.590;2023-04-01T17:17:45;2.60;;;2.40;;
74170;SDS011;62526;50.948;6.590;2023-04-01T17:20:40;2.83;;;2.60;;
74170;SDS011;62526;50.948;6.590;2023-04-01T17:23:12;2.93;;;2.60;;
74170;SDS011;62526;50.948;6.590;2023-04-01T17:25:46;2.60;;;2.17;;
74170;SDS011;62526;50.948;6.590;2023-04-01T17:30:58;2.77;;;2.40;;
74170;SDS011;62526;50.948;6.590;2023-04-01T17:36:09;2.63;;;2.43;;
74170;SDS011;62526;50.948;6.590;2023-04-01T17:38:54;3.00;;;2.70;;
74170;SDS011;62526;50.948;6.590;2023-04-01T17:41:25;3.07;;;2.80;;
74170;SDS011;62526;50.948;6.590;2023-04-01T17:43:53;3.07;;;2.47;;
74170;SDS011;62526;50.948;6.590;2023-04-01T17:46:23;2.77;;;2.57;;
74170;SDS011;62526;50.948;6.590;2023-04-01T17:48:53;3.60;;;2.87;;
74170;SDS011;62526;50.948;6.590;2023-04-01T17:51:24;6.10;;;4.13;;
74170;SDS011;62526;50.948;6.590;2023-04-01T17:54:02;2.40;;;2.20;;
74170;SDS011;62526;50.948;6.590;2023-04-01T18:05:01;4.33;;;3.60;;
74170;SDS011;62526;50.948;6.590;2023-04-01T18:07:31;3.20;;;2.90;;
74170;SDS011;62526;50.948;6.590;2023-04-01T18:12:44;2.40;;;2.20;;
74170;SDS011;62526;50.948;6.590;2023-04-01T18:15:22;2.43;;;2.23;;
74170;SDS011;62526;50.948;6.590;2023-04-01T18:21:20;2.13;;;1.93;;
74170;SDS011;62526;50.948;6.590;2023-04-01T18:23:39;2.37;;;2.17;;
74170;SDS011;62526;50.948;6.590;2023-04-01T18:26:13;2.60;;;2.40;;
74170;SDS011;62526;50.948;6.590;2023-04-01T18:28:44;2.87;;;2.33;;
74170;SDS011;62526;50.948;6.590;2023-04-01T18:31:12;4.13;;;3.17;;
74170;SDS011;62526;50.948;6.590;2023-04-01T18:36:35;2.47;;;2.27;;
74170;SDS011;62526;50.948;6.590;2023-04-01T18:39:23;3.63;;;2.43;;
74170;SDS011;62526;50.948;6.590;2023-04-01T18:41:57;2.33;;;2.13;;
74170;SDS011;62526;50.948;6.590;2023-04-01T18:44:43;2.33;;;2.03;;
74170;SDS011;62526;50.948;6.590;2023-04-01T18:47:15;1.70;;;1.60;;
74170;SDS011;62526;50.948;6.590;2023-04-01T18:49:46;2.97;;;1.83;;
74170;SDS011;62526;50.948;6.590;2023-04-01T18:52:17;2.83;;;1.83;;
74170;SDS011;62526;50.948;6.590;2023-04-01T18:55:18;2.30;;;1.73;;
74170;SDS011;62526;50.948;6.590;2023-04-01T18:57:46;3.33;;;2.00;;
74170;SDS011;62526;50.948;6.590;2023-04-01T19:00:25;1.67;;;1.57;;
74170;SDS011;62526;50.948;6.590;2023-04-01T19:02:57;2.20;;;2.00;;
74170;SDS011;62526;50.948;6.590;2023-04-01T19:05:29;2.33;;;2.13;;
74170;SDS011;62526;50.948;6.590;2023-04-01T19:07:53;3.07;;;2.77;;
74170;SDS011;62526;50.948;6.590;2023-04-01T19:13:16;3.03;;;2.73;;
74170;SDS011;62526;50.948;6.590;2023-04-01T19:15:46;2.40;;;2.20;;
74170;SDS011;62526;50.948;6.590;2023-04-01T19:18:34;3.07;;;2.73;;
74170;SDS011;62526;50.948;6.590;2023-04-01T19:21:07;3.40;;;2.20;;
74170;SDS011;62526;50.948;6.590;2023-04-01T19:26:27;3.07;;;2.73;;
74170;SDS011;62526;50.948;6.590;2023-04-01T19:31:40;3.77;;;3.47;;
74170;SDS011;62526;50.948;6.590;2023-04-01T19:34:20;3.47;;;3.17;;
74170;SDS011;62526;50.948;6.590;2023-04-01T19:36:49;4.73;;;3.87;;
74170;SDS011;62526;50.948;6.590;2023-04-01T19:42:09;4.33;;;3.43;;
74170;SDS011;62526;50.948;6.590;2023-04-01T19:44:41;3.73;;;3.43;;
74170;SDS011;62526;50.948;6.590;2023-04-01T19:50:18;4.33;;;3.37;;
74170;SDS011;62526;50.948;6.590;2023-04-01T19:52:47;4.93;;;4.17;;
74170;SDS011;62526;50.948;6.590;2023-04-01T19:55:21;5.27;;;3.97;;
74170;SDS011;62526;50.948;6.590;2023-04-01T19:57:51;4.50;;;3.90;;
74170;SDS011;62526;50.948;6.590;2023-04-01T20:00:28;4.97;;;4.20;;
74170;SDS011;62526;50.948;6.590;2023-04-01T20:05:35;7.23;;;4.97;;